Federalsburg, Maryland
Current Conditions -  °F | °C
As of 6:50 PM on Wednesday 22 Oct 2014 (Local Time) from KESN Reporting Station
Drizzle Drizzle  
Wind Chill: 55°   Ceiling: 1800
Heat Index: 55°   Visibility: 7mi
Dew Point: 55°   Wind: 12mph
Humidity: 100%   Direction: 350°N
Pressure: 29.91"   Gusts: 21mph
Location:  38.69°N, 75.77°W
Report Text: KESN 222250Z 35010G18KT 7SM -DZ BKN018 OVC031 13/13 A2991
Loading
Personal Weather Stations






























Interactive Weather Map
Tropical Storm Tracking
New forecast layout! Learn more

10-Day Weather Forecast

Advertisements
Track Severe Weather on mobile